createdAt,value
2019-01-31T00:02:15.191Z,46.90
2019-01-31T00:05:08.739Z,58.47
2019-01-31T00:07:46.568Z,69.67
2019-01-31T00:10:39.309Z,77.40
2019-01-31T00:13:14.286Z,132.10
2019-01-31T00:16:11.830Z,249.20
2019-01-31T00:18:46.423Z,52.97
2019-01-31T00:21:20.645Z,67.80
2019-01-31T00:24:01.628Z,79.43
2019-01-31T00:26:38.766Z,146.50
2019-01-31T00:29:22.734Z,124.40
2019-01-31T00:31:59.601Z,82.87
2019-01-31T00:35:05.634Z,175.93
2019-01-31T00:37:37.278Z,227.20
2019-01-31T00:40:27.276Z,222.17
2019-01-31T00:43:10.853Z,271.67
2019-01-31T00:45:50.804Z,226.20
2019-01-31T00:48:31.139Z,238.53
2019-01-31T00:51:02.836Z,447.37
2019-01-31T00:53:52.796Z,529.20
2019-01-31T00:56:39.312Z,613.93
2019-01-31T00:59:41.218Z,541.50
2019-01-31T01:02:37.065Z,674.17
2019-01-31T01:05:23.872Z,721.47
2019-01-31T01:07:55.625Z,543.83
2019-01-31T01:10:32.697Z,400.47
2019-01-31T01:13:21.494Z,437.93
2019-01-31T01:16:04.879Z,400.07
2019-01-31T01:18:42.451Z,491.57
2019-01-31T01:21:22.962Z,425.57
2019-01-31T01:24:03.467Z,334.93
2019-01-31T01:26:56.070Z,222.47
2019-01-31T01:29:30.575Z,499.90
2019-01-31T01:32:20.032Z,442.60
2019-01-31T01:35:19.240Z,261.83
2019-01-31T01:38:11.274Z,398.90
2019-01-31T01:40:54.790Z,362.00
2019-01-31T01:43:35.181Z,440.37
2019-01-31T01:46:19.084Z,435.07
2019-01-31T01:48:53.286Z,389.67
2019-01-31T01:51:40.014Z,402.07
2019-01-31T01:54:34.257Z,447.53
2019-01-31T01:57:28.575Z,401.13
2019-01-31T02:00:06.098Z,456.77
2019-01-31T02:03:00.305Z,556.47
2019-01-31T02:05:34.903Z,596.97
2019-01-31T02:08:12.439Z,667.07
2019-01-31T02:11:01.922Z,574.93
2019-01-31T02:13:42.573Z,521.40
2019-01-31T02:16:26.265Z,319.70
2019-01-31T02:19:04.300Z,434.43
2019-01-31T02:21:51.118Z,505.50
2019-01-31T02:24:31.817Z,439.67
2019-01-31T02:27:20.100Z,456.50
2019-01-31T02:30:12.947Z,636.53
2019-01-31T02:33:02.874Z,883.20
2019-01-31T02:35:49.450Z,1233.73
2019-01-31T02:38:23.944Z,965.73
2019-01-31T02:41:12.073Z,809.17
2019-01-31T02:43:49.519Z,646.83
2019-01-31T02:46:39.525Z,665.17
2019-01-31T02:49:35.429Z,612.57
2019-01-31T02:52:07.170Z,843.67
2019-01-31T02:54:47.641Z,677.70
2019-01-31T02:57:19.832Z,569.17
2019-01-31T03:00:00.341Z,533.57
2019-01-31T03:02:37.749Z,513.43
2019-01-31T03:05:21.278Z,468.23
2019-01-31T03:07:58.985Z,287.37
2019-01-31T03:10:33.394Z,293.93
2019-01-31T03:13:32.238Z,226.00
2019-01-31T03:16:28.123Z,185.60
2019-01-31T03:19:19.474Z,180.33
2019-01-31T03:21:53.709Z,315.67
2019-01-31T03:24:51.356Z,465.77
2019-01-31T03:27:48.706Z,448.27
2019-01-31T03:30:49.251Z,306.93
2019-01-31T03:33:23.793Z,248.23
2019-01-31T03:36:01.233Z,202.17
2019-01-31T03:38:47.799Z,151.63
2019-01-31T03:41:37.326Z,165.93
2019-01-31T03:44:14.769Z,65.10
2019-01-31T03:46:49.135Z,63.90
2019-01-31T03:49:26.602Z,173.70
2019-01-31T03:52:13.161Z,202.10
2019-01-31T03:55:14.951Z,222.23
2019-01-31T03:58:07.488Z,267.20
2019-01-31T04:00:48.164Z,188.57
2019-01-31T04:03:34.882Z,190.00
2019-01-31T04:06:06.602Z,265.57
2019-01-31T04:08:35.330Z,290.07
2019-01-31T04:11:04.213Z,261.27
2019-01-31T04:13:32.950Z,255.40
2019-01-31T04:16:01.685Z,217.20
2019-01-31T04:18:30.466Z,225.30
2019-01-31T04:20:59.215Z,203.37
2019-01-31T04:23:28.000Z,234.70
2019-01-31T04:25:57.505Z,268.43
2019-01-31T04:28:26.243Z,235.30
2019-01-31T04:30:54.974Z,311.30
2019-01-31T04:33:24.228Z,258.13
2019-01-31T04:35:53.139Z,282.27
2019-01-31T04:38:21.860Z,212.20
2019-01-31T04:40:50.641Z,308.07
2019-01-31T04:43:19.376Z,349.43
2019-01-31T04:45:48.120Z,285.47
2019-01-31T04:48:16.940Z,268.00
2019-01-31T04:50:45.674Z,270.40
2019-01-31T04:53:14.409Z,289.53
2019-01-31T04:55:43.299Z,470.77
2019-01-31T04:58:12.025Z,474.83
2019-01-31T05:00:40.958Z,261.90
2019-01-31T05:03:09.742Z,396.70
2019-01-31T05:05:38.475Z,438.03
2019-01-31T05:08:07.204Z,388.13
2019-01-31T05:10:42.598Z,372.70
2019-01-31T05:13:06.439Z,384.07
2019-01-31T05:15:35.162Z,490.47
2019-01-31T05:18:04.845Z,389.13
2019-01-31T05:20:33.645Z,380.97
2019-01-31T05:23:02.446Z,475.47
2019-01-31T05:25:31.216Z,308.77
2019-01-31T05:27:59.975Z,341.03
2019-01-31T05:30:28.704Z,446.13
2019-01-31T05:32:59.015Z,415.13
2019-01-31T05:35:27.898Z,375.30
2019-01-31T05:37:56.622Z,430.40
2019-01-31T05:40:25.508Z,356.77
2019-01-31T05:42:54.247Z,316.07
2019-01-31T05:45:24.749Z,401.03
2019-01-31T05:47:53.533Z,457.43
2019-01-31T05:50:22.274Z,422.43
2019-01-31T05:52:50.995Z,447.10
2019-01-31T05:55:19.795Z,411.97
2019-01-31T05:57:48.516Z,449.37
2019-01-31T06:00:21.662Z,387.83
2019-01-31T06:02:50.427Z,393.30
2019-01-31T06:05:19.242Z,392.17
2019-01-31T06:07:47.973Z,338.73
2019-01-31T06:10:16.854Z,451.50
2019-01-31T06:12:45.587Z,420.00
2019-01-31T06:15:17.226Z,355.33
2019-01-31T06:17:46.046Z,333.93
2019-01-31T06:20:18.190Z,352.33
2019-01-31T06:22:46.904Z,316.27
2019-01-31T06:25:15.699Z,273.90
2019-01-31T06:27:44.522Z,385.97
2019-01-31T06:30:15.745Z,408.33
2019-01-31T06:32:44.547Z,349.27
2019-01-31T06:35:14.080Z,329.90
2019-01-31T06:37:42.790Z,354.73
2019-01-31T06:40:14.353Z,334.40
2019-01-31T06:42:43.082Z,333.30
2019-01-31T06:45:14.845Z,379.57
2019-01-31T06:47:43.736Z,356.93
2019-01-31T06:50:12.462Z,338.23
2019-01-31T06:52:41.192Z,239.10
2019-01-31T06:55:11.873Z,245.20
2019-01-31T06:57:40.604Z,297.87
2019-01-31T07:00:16.076Z,319.50
2019-01-31T07:02:44.861Z,300.90
2019-01-31T07:05:13.714Z,268.10
2019-01-31T07:07:42.491Z,317.90
2019-01-31T07:10:14.462Z,394.73
2019-01-31T07:12:43.199Z,349.63
2019-01-31T07:15:13.467Z,339.60
2019-01-31T07:17:42.197Z,503.37
2019-01-31T07:20:13.522Z,306.13
2019-01-31T07:22:42.387Z,277.20
2019-01-31T07:25:19.853Z,264.83
2019-01-31T07:27:50.456Z,316.97
2019-01-31T07:30:26.318Z,306.77
2019-01-31T07:32:54.116Z,293.33
2019-01-31T07:35:22.883Z,324.17
2019-01-31T07:37:53.118Z,251.33
2019-01-31T07:40:23.062Z,306.07
2019-01-31T07:42:51.936Z,316.17
2019-01-31T07:45:23.306Z,402.10
2019-01-31T07:47:52.037Z,434.07
2019-01-31T07:50:21.321Z,333.13
2019-01-31T07:52:50.146Z,336.93
2019-01-31T07:55:19.183Z,226.87
2019-01-31T07:57:48.143Z,267.30
2019-01-31T08:00:19.341Z,256.27
2019-01-31T08:02:48.071Z,320.17
2019-01-31T08:05:18.865Z,218.77
2019-01-31T08:07:49.068Z,259.20
2019-01-31T08:10:23.705Z,195.07
2019-01-31T08:12:52.435Z,112.30
2019-01-31T08:15:21.362Z,150.40
2019-01-31T08:17:50.273Z,200.50
2019-01-31T08:20:20.310Z,185.73
2019-01-31T08:22:49.037Z,387.20
2019-01-31T08:25:25.747Z,326.40
2019-01-31T08:27:55.588Z,372.87
2019-01-31T08:30:29.907Z,258.67
2019-01-31T08:32:58.737Z,220.27
2019-01-31T08:35:27.661Z,252.97
2019-01-31T08:37:56.550Z,253.07
2019-01-31T08:40:25.276Z,204.93
2019-01-31T08:42:54.098Z,234.43
2019-01-31T08:45:23.293Z,240.93
2019-01-31T08:47:52.020Z,199.73
2019-01-31T08:50:23.301Z,220.07
2019-01-31T08:52:52.188Z,169.83
2019-01-31T08:55:20.929Z,329.10
2019-01-31T08:57:49.638Z,162.53
2019-01-31T09:00:21.169Z,176.10
2019-01-31T09:02:49.891Z,130.80
2019-01-31T09:05:18.724Z,127.10
2019-01-31T09:07:56.874Z,112.20
2019-01-31T09:10:28.344Z,118.37
2019-01-31T09:12:57.663Z,105.97
2019-01-31T09:15:27.287Z,109.23
2019-01-31T09:17:56.160Z,105.77
2019-01-31T09:20:31.057Z,118.73
2019-01-31T09:23:08.569Z,111.57
2019-01-31T09:25:48.889Z,112.83
2019-01-31T09:28:29.608Z,102.33
2019-01-31T09:31:01.201Z,96.77
2019-01-31T09:33:49.904Z,100.03
2019-01-31T09:36:36.631Z,88.13
2019-01-31T09:39:11.127Z,96.33
2019-01-31T09:41:57.791Z,99.37
2019-01-31T09:44:49.184Z,108.30
2019-01-31T09:47:32.879Z,100.77
2019-01-31T09:50:22.641Z,85.47
2019-01-31T09:53:16.888Z,77.87
2019-01-31T09:56:14.068Z,78.57
2019-01-31T09:58:51.602Z,78.90
2019-01-31T10:01:41.297Z,75.43
2019-01-31T10:04:12.922Z,73.67
2019-01-31T10:06:56.683Z,65.53
2019-01-31T10:09:31.269Z,65.57
2019-01-31T10:12:08.849Z,63.23
2019-01-31T10:14:40.437Z,69.23
2019-01-31T10:17:21.588Z,58.53
2019-01-31T10:20:08.137Z,67.50
2019-01-31T10:22:53.586Z,52.23
2019-01-31T10:25:31.443Z,50.83
2019-01-31T10:28:26.067Z,51.47
2019-01-31T10:31:15.885Z,51.27
2019-01-31T10:33:59.701Z,51.40
2019-01-31T10:36:40.345Z,44.87
2019-01-31T10:39:14.962Z,46.60
2019-01-31T10:41:52.719Z,53.33
2019-01-31T10:44:42.690Z,55.07
2019-01-31T10:47:22.689Z,48.13
2019-01-31T10:50:09.582Z,43.83
2019-01-31T10:53:00.309Z,49.00
2019-01-31T10:55:52.452Z,39.13
2019-01-31T10:58:29.656Z,47.90
2019-01-31T11:01:01.289Z,39.00
2019-01-31T11:03:35.886Z,44.43
2019-01-31T11:06:19.880Z,42.00
2019-01-31T11:09:04.183Z,31.53
2019-01-31T11:11:41.997Z,40.03
2019-01-31T11:14:25.633Z,36.90
2019-01-31T11:17:16.928Z,54.23
2019-01-31T11:19:54.225Z,43.73
2019-01-31T11:22:34.611Z,46.10
2019-01-31T11:25:06.207Z,49.43
2019-01-31T11:27:54.759Z,47.30
2019-01-31T11:30:38.368Z,43.83
2019-01-31T11:33:18.657Z,42.87
2019-01-31T11:36:12.745Z,40.57
2019-01-31T11:39:08.812Z,38.70
2019-01-31T11:41:56.892Z,35.17
2019-01-31T11:44:43.569Z,38.20
2019-01-31T11:47:15.169Z,49.33
2019-01-31T11:49:58.724Z,46.07
2019-01-31T11:52:36.110Z,31.97
2019-01-31T11:55:13.331Z,32.47
2019-01-31T11:58:06.007Z,49.20
2019-01-31T12:00:34.749Z,39.23
2019-01-31T12:03:03.433Z,32.83
2019-01-31T12:05:32.116Z,30.93
2019-01-31T12:08:00.945Z,32.83
2019-01-31T12:10:29.633Z,30.17
2019-01-31T12:12:58.515Z,35.77
2019-01-31T12:15:27.361Z,34.10
2019-01-31T12:17:56.038Z,35.10
2019-01-31T12:20:24.732Z,36.13
2019-01-31T12:22:53.457Z,34.30
2019-01-31T12:25:22.144Z,46.80
2019-01-31T12:27:50.820Z,39.00
2019-01-31T12:30:22.805Z,58.20
2019-01-31T12:32:51.507Z,51.30
2019-01-31T12:35:20.194Z,37.63
2019-01-31T12:37:49.028Z,40.53
2019-01-31T12:40:18.913Z,53.47
2019-01-31T12:42:47.984Z,42.90
2019-01-31T12:45:20.736Z,42.10
2019-01-31T12:47:49.413Z,40.93
2019-01-31T12:50:20.800Z,48.13
2019-01-31T12:52:49.657Z,104.00
2019-01-31T12:55:18.333Z,60.00
2019-01-31T12:57:47.115Z,58.60
2019-01-31T13:00:27.173Z,42.47
2019-01-31T13:02:55.958Z,47.23
2019-01-31T13:05:24.818Z,46.97
2019-01-31T13:07:53.576Z,45.73
2019-01-31T13:10:22.256Z,49.97
2019-01-31T13:12:51.452Z,58.63
2019-01-31T13:15:20.502Z,48.70
2019-01-31T13:17:49.346Z,45.30
2019-01-31T13:20:22.701Z,65.70
2019-01-31T13:22:56.131Z,56.33
2019-01-31T13:25:25.994Z,56.20
2019-01-31T13:27:54.774Z,56.53
2019-01-31T13:30:24.509Z,56.30
2019-01-31T13:32:55.289Z,62.37
2019-01-31T13:35:24.197Z,68.40
2019-01-31T13:37:53.422Z,90.13
2019-01-31T13:40:27.932Z,93.13
2019-01-31T13:42:56.784Z,85.83
2019-01-31T13:45:30.416Z,76.63
2019-01-31T13:48:01.897Z,92.30
2019-01-31T13:50:32.452Z,97.70
2019-01-31T13:53:01.241Z,96.60
2019-01-31T13:55:31.797Z,125.17
2019-01-31T13:58:00.487Z,123.10
2019-01-31T14:00:29.166Z,106.80
2019-01-31T14:02:58.335Z,94.50
2019-01-31T14:05:29.765Z,121.40
2019-01-31T14:07:57.546Z,114.63
2019-01-31T14:10:27.519Z,114.33
2019-01-31T14:12:56.248Z,121.27
2019-01-31T14:15:34.188Z,138.43
2019-01-31T14:18:03.253Z,132.23
2019-01-31T14:20:32.387Z,109.87
2019-01-31T14:23:01.508Z,97.83
2019-01-31T14:25:30.231Z,101.60
2019-01-31T14:27:59.050Z,96.43
2019-01-31T14:30:33.452Z,109.97
2019-01-31T14:33:02.380Z,95.03
2019-01-31T14:35:31.603Z,97.07
2019-01-31T14:38:00.602Z,112.07
2019-01-31T14:40:29.394Z,95.07
2019-01-31T14:43:00.214Z,98.43
2019-01-31T14:45:30.127Z,97.47
2019-01-31T14:47:58.977Z,98.10
2019-01-31T14:50:31.903Z,104.90
2019-01-31T14:53:00.770Z,94.43
2019-01-31T14:55:30.320Z,86.00
2019-01-31T14:57:59.151Z,107.47
2019-01-31T15:00:32.932Z,134.47
2019-01-31T15:03:01.652Z,104.90
2019-01-31T15:05:30.388Z,124.00
2019-01-31T15:07:59.262Z,92.77
2019-01-31T15:10:29.916Z,81.53
2019-01-31T15:12:58.840Z,83.27
2019-01-31T15:15:27.805Z,139.23
2019-01-31T15:17:56.808Z,121.70
2019-01-31T15:20:37.803Z,130.37
2019-01-31T15:23:01.790Z,116.33
2019-01-31T15:25:30.525Z,103.10
2019-01-31T15:27:59.247Z,119.87
2019-01-31T15:30:32.894Z,119.13
2019-01-31T15:33:04.644Z,131.80
2019-01-31T15:35:33.373Z,112.43
2019-01-31T15:38:02.266Z,204.70
2019-01-31T15:40:37.136Z,117.30
2019-01-31T15:43:07.224Z,162.20
2019-01-31T15:45:35.941Z,79.90
2019-01-31T15:48:05.364Z,82.93
2019-01-31T15:50:34.843Z,83.83
2019-01-31T15:53:04.176Z,96.50
2019-01-31T15:55:33.011Z,112.17
2019-01-31T15:58:01.892Z,98.67
2019-01-31T16:00:41.094Z,115.27
2019-01-31T16:03:17.786Z,145.97
2019-01-31T16:05:46.912Z,200.83
2019-01-31T16:08:15.849Z,88.37
2019-01-31T16:10:44.878Z,109.83
2019-01-31T16:13:13.837Z,101.93
2019-01-31T16:15:43.017Z,123.83
2019-01-31T16:18:12.607Z,130.50
2019-01-31T16:20:41.531Z,161.07
2019-01-31T16:23:10.961Z,226.57
2019-01-31T16:25:39.765Z,257.70
2019-01-31T16:28:08.594Z,213.63
2019-01-31T16:30:37.321Z,209.40
2019-01-31T16:33:06.412Z,219.23
2019-01-31T16:35:35.139Z,208.77
2019-01-31T16:38:03.958Z,179.80
2019-01-31T16:40:32.760Z,121.50
2019-01-31T16:43:01.483Z,158.60
2019-01-31T16:45:30.706Z,122.00
2019-01-31T16:47:59.509Z,116.70
2019-01-31T16:50:28.238Z,141.07
2019-01-31T16:52:57.980Z,117.97
2019-01-31T16:55:31.297Z,116.47
2019-01-31T16:58:00.527Z,86.00
2019-01-31T17:00:35.517Z,96.70
2019-01-31T17:03:05.365Z,105.13
2019-01-31T17:05:34.477Z,90.80
2019-01-31T17:08:09.349Z,98.70
2019-01-31T17:10:38.102Z,100.33
2019-01-31T17:13:06.911Z,94.60
2019-01-31T17:15:35.787Z,106.63
2019-01-31T17:18:06.015Z,103.97
2019-01-31T17:20:37.507Z,88.93
2019-01-31T17:23:06.775Z,86.77
2019-01-31T17:25:35.502Z,89.03
2019-01-31T17:28:04.626Z,99.93
2019-01-31T17:30:33.374Z,96.77
2019-01-31T17:33:02.148Z,130.13
2019-01-31T17:35:30.870Z,113.77
2019-01-31T17:37:59.747Z,150.43
2019-01-31T17:40:33.920Z,125.13
2019-01-31T17:43:02.743Z,77.30
2019-01-31T17:45:31.540Z,74.70
2019-01-31T17:48:00.467Z,94.63
2019-01-31T17:50:29.393Z,94.43
2019-01-31T17:52:58.495Z,78.23
2019-01-31T17:55:28.095Z,76.83
2019-01-31T17:57:58.954Z,68.60
2019-01-31T18:00:35.062Z,60.13
2019-01-31T18:03:04.077Z,57.77
2019-01-31T18:05:35.811Z,51.70
2019-01-31T18:08:09.047Z,64.23
2019-01-31T18:10:36.342Z,73.47
2019-01-31T18:13:05.749Z,63.47
2019-01-31T18:15:41.598Z,59.10
2019-01-31T18:18:05.885Z,85.57
2019-01-31T18:20:35.075Z,79.30
2019-01-31T18:23:03.995Z,75.10
2019-01-31T18:25:32.725Z,57.77
2019-01-31T18:28:07.975Z,102.37
2019-01-31T18:30:38.360Z,76.53
2019-01-31T18:33:14.078Z,120.33
2019-01-31T18:35:42.799Z,61.70
2019-01-31T18:38:16.508Z,124.70
2019-01-31T18:40:45.916Z,77.67
2019-01-31T18:43:14.637Z,150.93
2019-01-31T18:45:52.905Z,132.10
2019-01-31T18:48:15.180Z,159.57
2019-01-31T18:50:43.972Z,95.60
2019-01-31T18:53:13.040Z,105.50
2019-01-31T18:55:41.868Z,50.30
2019-01-31T18:58:10.592Z,40.20
2019-01-31T19:00:49.032Z,34.57
2019-01-31T19:03:20.060Z,26.10
2019-01-31T19:05:48.982Z,34.17
2019-01-31T19:08:17.987Z,36.07
2019-01-31T19:10:46.671Z,56.40
2019-01-31T19:13:15.417Z,30.10
2019-01-31T19:15:46.419Z,29.27
2019-01-31T19:18:14.924Z,45.63
2019-01-31T19:20:43.651Z,35.40
2019-01-31T19:23:12.546Z,45.93
2019-01-31T19:25:41.265Z,36.40
2019-01-31T19:28:13.004Z,44.70
2019-01-31T19:30:41.694Z,42.63
2019-01-31T19:33:10.508Z,18.03
2019-01-31T19:35:45.892Z,13.83
2019-01-31T19:38:14.583Z,9.93
2019-01-31T19:40:44.199Z,19.80
2019-01-31T19:43:21.887Z,15.47
2019-01-31T19:45:51.516Z,24.27
2019-01-31T19:48:22.995Z,20.73
2019-01-31T19:50:51.887Z,21.83
2019-01-31T19:53:22.181Z,21.07
2019-01-31T19:56:16.915Z,14.50
2019-01-31T19:58:45.642Z,35.87
2019-01-31T20:01:14.551Z,26.53
2019-01-31T20:03:43.259Z,32.43
2019-01-31T20:06:12.257Z,43.20
2019-01-31T20:08:41.127Z,21.77
2019-01-31T20:11:09.872Z,28.93
2019-01-31T20:13:38.590Z,23.10
2019-01-31T20:16:07.414Z,40.70
2019-01-31T20:18:36.129Z,25.53
2019-01-31T20:21:05.550Z,27.00
2019-01-31T20:23:34.530Z,29.00
2019-01-31T20:26:03.224Z,35.07
2019-01-31T20:28:34.059Z,29.53
2019-01-31T20:31:02.925Z,24.80
2019-01-31T20:33:31.647Z,26.30
2019-01-31T20:36:10.891Z,23.37
2019-01-31T20:38:39.611Z,30.17
2019-01-31T20:41:08.534Z,49.67
2019-01-31T20:43:37.423Z,66.37
2019-01-31T20:46:06.139Z,48.57
2019-01-31T20:48:34.862Z,41.13
2019-01-31T20:51:03.641Z,32.67
2019-01-31T20:53:32.365Z,26.33
2019-01-31T20:56:01.089Z,43.57
2019-01-31T20:58:29.879Z,39.30
2019-01-31T21:00:58.605Z,139.97
2019-01-31T21:03:27.334Z,364.63
2019-01-31T21:05:56.178Z,78.37
2019-01-31T21:08:24.901Z,220.73
2019-01-31T21:10:53.649Z,240.43
2019-01-31T21:13:22.561Z,212.97
2019-01-31T21:15:53.079Z,120.17
2019-01-31T21:18:21.715Z,26.20
2019-01-31T21:20:50.471Z,14.30
2019-01-31T21:23:19.184Z,20.80
2019-01-31T21:25:47.914Z,24.07
2019-01-31T21:28:16.689Z,19.53
2019-01-31T21:30:45.509Z,17.17
2019-01-31T21:33:14.228Z,273.33
2019-01-31T21:35:43.122Z,118.50
2019-01-31T21:38:11.863Z,92.23
2019-01-31T21:40:40.583Z,249.67
2019-01-31T21:43:09.537Z,65.30
2019-01-31T21:45:38.560Z,29.93
2019-01-31T21:48:07.574Z,27.03
2019-01-31T21:50:36.884Z,53.17
2019-01-31T21:53:06.002Z,129.53
2019-01-31T21:55:34.723Z,83.77
2019-01-31T21:58:03.555Z,125.87
2019-01-31T22:00:34.179Z,120.67
2019-01-31T22:03:03.692Z,67.27
2019-01-31T22:05:32.484Z,49.27
2019-01-31T22:08:01.244Z,32.20
2019-01-31T22:10:30.148Z,10.83
2019-01-31T22:12:59.029Z,7.03
2019-01-31T22:15:35.266Z,13.13
2019-01-31T22:18:04.337Z,48.83
2019-01-31T22:20:34.059Z,10.17
2019-01-31T22:23:02.777Z,11.53
2019-01-31T22:25:31.738Z,11.27
2019-01-31T22:28:00.588Z,27.60
2019-01-31T22:30:31.546Z,19.27
2019-01-31T22:33:00.532Z,8.13
2019-01-31T22:35:29.386Z,27.43
2019-01-31T22:37:58.208Z,18.93
2019-01-31T22:40:27.292Z,23.07
2019-01-31T22:42:56.008Z,8.40
2019-01-31T22:45:25.527Z,10.17
2019-01-31T22:47:54.974Z,7.03
2019-01-31T22:50:24.285Z,5.40
2019-01-31T22:52:53.005Z,11.23
2019-01-31T22:55:26.457Z,6.03
2019-01-31T22:57:55.575Z,23.03
2019-01-31T23:00:50.513Z,4.67
2019-01-31T23:03:19.329Z,6.93
2019-01-31T23:05:48.050Z,11.20
2019-01-31T23:08:16.928Z,10.87
2019-01-31T23:10:45.643Z,6.87
2019-01-31T23:13:14.364Z,16.17
2019-01-31T23:15:43.120Z,39.73
2019-01-31T23:18:13.298Z,3.93
2019-01-31T23:20:44.263Z,5.73
2019-01-31T23:23:12.829Z,6.40
2019-01-31T23:25:41.543Z,7.07
2019-01-31T23:28:10.257Z,6.87
2019-01-31T23:30:39.442Z,6.23
2019-01-31T23:33:08.154Z,4.93
2019-01-31T23:35:36.964Z,4.10
2019-01-31T23:38:05.993Z,7.77
2019-01-31T23:40:34.705Z,5.20
2019-01-31T23:43:03.413Z,4.50
2019-01-31T23:45:32.301Z,9.17
2019-01-31T23:48:01.010Z,3.33
2019-01-31T23:50:29.725Z,2.57
2019-01-31T23:52:58.590Z,3.63
2019-01-31T23:55:27.297Z,4.13
2019-01-31T23:57:56.003Z,2.53
